sensor_id;sensor_type;location;lat;lon;timestamp;P1;durP1;ratioP1;P2;durP2;ratioP2
20069;SDS011;10195;50.868;4.382;2023-03-23T00:02:02;10.00;;;5.37;;
20069;SDS011;10195;50.868;4.382;2023-03-23T00:04:28;12.03;;;5.83;;
20069;SDS011;10195;50.868;4.382;2023-03-23T00:06:54;9.93;;;5.30;;
20069;SDS011;10195;50.868;4.382;2023-03-23T00:09:20;8.67;;;5.43;;
20069;SDS011;10195;50.868;4.382;2023-03-23T00:11:48;9.40;;;4.60;;
20069;SDS011;10195;50.868;4.382;2023-03-23T00:14:15;7.83;;;5.00;;
20069;SDS011;10195;50.868;4.382;2023-03-23T00:16:47;9.47;;;5.07;;
20069;SDS011;10195;50.868;4.382;2023-03-23T00:19:14;6.90;;;4.00;;
20069;SDS011;10195;50.868;4.382;2023-03-23T00:21:40;7.70;;;4.20;;
20069;SDS011;10195;50.868;4.382;2023-03-23T00:24:17;5.83;;;4.10;;
20069;SDS011;10195;50.868;4.382;2023-03-23T00:26:46;8.40;;;4.30;;
20069;SDS011;10195;50.868;4.382;2023-03-23T00:29:21;7.03;;;4.47;;
20069;SDS011;10195;50.868;4.382;2023-03-23T00:31:48;6.40;;;4.20;;
20069;SDS011;10195;50.868;4.382;2023-03-23T00:34:15;5.00;;;3.90;;
20069;SDS011;10195;50.868;4.382;2023-03-23T00:36:44;6.33;;;4.53;;
20069;SDS011;10195;50.868;4.382;2023-03-23T00:39:14;8.77;;;4.07;;
20069;SDS011;10195;50.868;4.382;2023-03-23T00:41:41;7.30;;;3.93;;
20069;SDS011;10195;50.868;4.382;2023-03-23T00:44:07;5.10;;;3.90;;
20069;SDS011;10195;50.868;4.382;2023-03-23T00:46:34;6.77;;;3.87;;
20069;SDS011;10195;50.868;4.382;2023-03-23T00:49:09;5.83;;;3.70;;
20069;SDS011;10195;50.868;4.382;2023-03-23T00:51:39;6.30;;;4.00;;
20069;SDS011;10195;50.868;4.382;2023-03-23T00:54:06;4.63;;;3.77;;
20069;SDS011;10195;50.868;4.382;2023-03-23T00:56:32;7.17;;;4.30;;
20069;SDS011;10195;50.868;4.382;2023-03-23T00:58:57;8.83;;;3.90;;
20069;SDS011;10195;50.868;4.382;2023-03-23T01:01:23;4.93;;;3.70;;
20069;SDS011;10195;50.868;4.382;2023-03-23T01:03:48;5.07;;;3.57;;
20069;SDS011;10195;50.868;4.382;2023-03-23T01:06:14;5.57;;;3.70;;
20069;SDS011;10195;50.868;4.382;2023-03-23T01:08:40;5.60;;;3.70;;
20069;SDS011;10195;50.868;4.382;2023-03-23T01:11:11;7.17;;;3.97;;
20069;SDS011;10195;50.868;4.382;2023-03-23T01:13:39;5.30;;;3.97;;
20069;SDS011;10195;50.868;4.382;2023-03-23T01:16:07;6.60;;;4.23;;
20069;SDS011;10195;50.868;4.382;2023-03-23T01:18:33;4.90;;;4.07;;
20069;SDS011;10195;50.868;4.382;2023-03-23T01:21:02;7.73;;;3.90;;
20069;SDS011;10195;50.868;4.382;2023-03-23T01:23:31;5.87;;;4.10;;
20069;SDS011;10195;50.868;4.382;2023-03-23T01:25:57;6.40;;;4.23;;
20069;SDS011;10195;50.868;4.382;2023-03-23T01:28:30;5.37;;;4.10;;
20069;SDS011;10195;50.868;4.382;2023-03-23T01:31:00;6.27;;;4.53;;
20069;SDS011;10195;50.868;4.382;2023-03-23T01:33:30;5.23;;;3.80;;
20069;SDS011;10195;50.868;4.382;2023-03-23T01:35:56;7.27;;;3.50;;
20069;SDS011;10195;50.868;4.382;2023-03-23T01:38:22;5.83;;;4.00;;
20069;SDS011;10195;50.868;4.382;2023-03-23T01:40:48;5.33;;;3.83;;
20069;SDS011;10195;50.868;4.382;2023-03-23T01:43:14;6.50;;;3.97;;
20069;SDS011;10195;50.868;4.382;2023-03-23T01:45:40;8.27;;;3.80;;
20069;SDS011;10195;50.868;4.382;2023-03-23T01:48:17;8.53;;;3.70;;
20069;SDS011;10195;50.868;4.382;2023-03-23T01:53:18;6.60;;;4.00;;
20069;SDS011;10195;50.868;4.382;2023-03-23T01:55:45;9.53;;;3.80;;
20069;SDS011;10195;50.868;4.382;2023-03-23T01:58:15;6.87;;;3.77;;
20069;SDS011;10195;50.868;4.382;2023-03-23T02:00:44;6.03;;;3.97;;
20069;SDS011;10195;50.868;4.382;2023-03-23T02:03:11;6.83;;;3.77;;
20069;SDS011;10195;50.868;4.382;2023-03-23T02:05:39;5.03;;;3.60;;
20069;SDS011;10195;50.868;4.382;2023-03-23T02:08:06;10.53;;;4.10;;
20069;SDS011;10195;50.868;4.382;2023-03-23T02:10:34;5.83;;;3.73;;
20069;SDS011;10195;50.868;4.382;2023-03-23T02:13:01;4.87;;;3.40;;
20069;SDS011;10195;50.868;4.382;2023-03-23T02:15:30;5.60;;;3.40;;
20069;SDS011;10195;50.868;4.382;2023-03-23T02:20:59;4.43;;;2.70;;
20069;SDS011;10195;50.868;4.382;2023-03-23T02:23:52;4.83;;;2.60;;
20069;SDS011;10195;50.868;4.382;2023-03-23T02:26:42;5.73;;;2.60;;
20069;SDS011;10195;50.868;4.382;2023-03-23T02:34:32;7.40;;;2.40;;
20069;SDS011;10195;50.868;4.382;2023-03-23T02:37:19;4.90;;;2.60;;
20069;SDS011;10195;50.868;4.382;2023-03-23T02:39:53;7.17;;;2.57;;
20069;SDS011;10195;50.868;4.382;2023-03-23T02:42:32;5.40;;;2.27;;
20069;SDS011;10195;50.868;4.382;2023-03-23T02:45:02;5.63;;;1.80;;
20069;SDS011;10195;50.868;4.382;2023-03-23T02:47:30;6.30;;;1.77;;
20069;SDS011;10195;50.868;4.382;2023-03-23T02:49:59;5.43;;;2.03;;
20069;SDS011;10195;50.868;4.382;2023-03-23T02:52:26;5.20;;;2.00;;
20069;SDS011;10195;50.868;4.382;2023-03-23T02:54:55;4.77;;;1.70;;
20069;SDS011;10195;50.868;4.382;2023-03-23T02:57:23;6.03;;;1.73;;
20069;SDS011;10195;50.868;4.382;2023-03-23T02:59:51;4.43;;;1.80;;
20069;SDS011;10195;50.868;4.382;2023-03-23T03:02:26;4.70;;;1.70;;
20069;SDS011;10195;50.868;4.382;2023-03-23T03:10:51;4.07;;;1.60;;
20069;SDS011;10195;50.868;4.382;2023-03-23T03:16:00;5.50;;;1.83;;
20069;SDS011;10195;50.868;4.382;2023-03-23T03:21:10;4.37;;;1.57;;
20069;SDS011;10195;50.868;4.382;2023-03-23T03:23:39;5.90;;;1.70;;
20069;SDS011;10195;50.868;4.382;2023-03-23T03:26:08;5.73;;;1.93;;
20069;SDS011;10195;50.868;4.382;2023-03-23T03:28:37;2.93;;;1.40;;
20069;SDS011;10195;50.868;4.382;2023-03-23T03:31:04;4.37;;;1.77;;
20069;SDS011;10195;50.868;4.382;2023-03-23T03:33:31;4.27;;;1.53;;
20069;SDS011;10195;50.868;4.382;2023-03-23T03:36:02;3.53;;;1.53;;
20069;SDS011;10195;50.868;4.382;2023-03-23T03:38:40;6.60;;;1.97;;
20069;SDS011;10195;50.868;4.382;2023-03-23T03:41:07;6.90;;;1.83;;
20069;SDS011;10195;50.868;4.382;2023-03-23T03:43:33;9.50;;;2.17;;
20069;SDS011;10195;50.868;4.382;2023-03-23T03:46:00;11.20;;;2.00;;
20069;SDS011;10195;50.868;4.382;2023-03-23T03:48:25;9.17;;;1.77;;
20069;SDS011;10195;50.868;4.382;2023-03-23T03:50:51;8.60;;;1.97;;
20069;SDS011;10195;50.868;4.382;2023-03-23T03:53:17;7.23;;;2.00;;
20069;SDS011;10195;50.868;4.382;2023-03-23T03:55:42;6.27;;;1.83;;
20069;SDS011;10195;50.868;4.382;2023-03-23T03:58:10;5.10;;;1.57;;
20069;SDS011;10195;50.868;4.382;2023-03-23T04:00:36;7.07;;;2.23;;
20069;SDS011;10195;50.868;4.382;2023-03-23T04:03:01;4.33;;;1.60;;
20069;SDS011;10195;50.868;4.382;2023-03-23T04:05:27;5.10;;;1.50;;
20069;SDS011;10195;50.868;4.382;2023-03-23T04:07:55;10.87;;;2.30;;
20069;SDS011;10195;50.868;4.382;2023-03-23T04:10:26;6.33;;;1.97;;
20069;SDS011;10195;50.868;4.382;2023-03-23T04:12:52;6.97;;;2.63;;
20069;SDS011;10195;50.868;4.382;2023-03-23T04:15:18;6.67;;;2.27;;
20069;SDS011;10195;50.868;4.382;2023-03-23T04:17:44;9.80;;;2.10;;
20069;SDS011;10195;50.868;4.382;2023-03-23T04:20:10;5.33;;;1.70;;
20069;SDS011;10195;50.868;4.382;2023-03-23T04:22:43;8.20;;;2.00;;
20069;SDS011;10195;50.868;4.382;2023-03-23T04:25:14;9.57;;;2.13;;
20069;SDS011;10195;50.868;4.382;2023-03-23T04:27:42;5.70;;;1.47;;
20069;SDS011;10195;50.868;4.382;2023-03-23T04:30:11;6.40;;;1.73;;
20069;SDS011;10195;50.868;4.382;2023-03-23T04:32:38;8.13;;;1.97;;
20069;SDS011;10195;50.868;4.382;2023-03-23T04:35:07;8.67;;;2.00;;
20069;SDS011;10195;50.868;4.382;2023-03-23T04:37:35;11.43;;;2.80;;
20069;SDS011;10195;50.868;4.382;2023-03-23T04:40:02;9.17;;;1.90;;
20069;SDS011;10195;50.868;4.382;2023-03-23T04:42:35;5.90;;;1.70;;
20069;SDS011;10195;50.868;4.382;2023-03-23T04:45:02;10.10;;;1.73;;
20069;SDS011;10195;50.868;4.382;2023-03-23T04:47:31;4.60;;;1.90;;
20069;SDS011;10195;50.868;4.382;2023-03-23T04:49:59;4.50;;;1.50;;
20069;SDS011;10195;50.868;4.382;2023-03-23T04:52:25;6.77;;;1.87;;
20069;SDS011;10195;50.868;4.382;2023-03-23T04:54:53;10.00;;;2.17;;
20069;SDS011;10195;50.868;4.382;2023-03-23T04:57:21;8.47;;;1.90;;
20069;SDS011;10195;50.868;4.382;2023-03-23T04:59:47;8.13;;;2.00;;
20069;SDS011;10195;50.868;4.382;2023-03-23T05:02:12;8.17;;;2.27;;
20069;SDS011;10195;50.868;4.382;2023-03-23T05:04:39;6.83;;;1.77;;
20069;SDS011;10195;50.868;4.382;2023-03-23T05:07:05;8.63;;;1.90;;
20069;SDS011;10195;50.868;4.382;2023-03-23T05:09:35;10.37;;;1.90;;
20069;SDS011;10195;50.868;4.382;2023-03-23T05:12:05;5.77;;;1.87;;
20069;SDS011;10195;50.868;4.382;2023-03-23T05:14:32;8.73;;;2.27;;
20069;SDS011;10195;50.868;4.382;2023-03-23T05:16:58;5.77;;;1.90;;
20069;SDS011;10195;50.868;4.382;2023-03-23T05:19:23;6.77;;;1.63;;
20069;SDS011;10195;50.868;4.382;2023-03-23T05:21:49;4.20;;;1.60;;
20069;SDS011;10195;50.868;4.382;2023-03-23T05:24:15;7.17;;;2.10;;
20069;SDS011;10195;50.868;4.382;2023-03-23T05:26:40;9.60;;;1.93;;
20069;SDS011;10195;50.868;4.382;2023-03-23T05:29:06;7.00;;;1.93;;
20069;SDS011;10195;50.868;4.382;2023-03-23T05:31:32;6.37;;;2.10;;
20069;SDS011;10195;50.868;4.382;2023-03-23T05:33:58;5.90;;;1.80;;
20069;SDS011;10195;50.868;4.382;2023-03-23T05:36:23;7.93;;;1.70;;
20069;SDS011;10195;50.868;4.382;2023-03-23T05:38:52;7.30;;;2.27;;
20069;SDS011;10195;50.868;4.382;2023-03-23T05:41:18;6.97;;;2.10;;
20069;SDS011;10195;50.868;4.382;2023-03-23T05:43:44;6.80;;;1.93;;
20069;SDS011;10195;50.868;4.382;2023-03-23T05:46:09;9.43;;;2.03;;
20069;SDS011;10195;50.868;4.382;2023-03-23T05:48:35;6.80;;;1.90;;
20069;SDS011;10195;50.868;4.382;2023-03-23T05:51:01;7.90;;;2.20;;
20069;SDS011;10195;50.868;4.382;2023-03-23T05:53:27;8.33;;;2.30;;
20069;SDS011;10195;50.868;4.382;2023-03-23T05:55:59;6.30;;;2.20;;
20069;SDS011;10195;50.868;4.382;2023-03-23T05:58:25;8.80;;;2.23;;
20069;SDS011;10195;50.868;4.382;2023-03-23T06:00:51;6.70;;;1.87;;
20069;SDS011;10195;50.868;4.382;2023-03-23T06:03:17;10.80;;;2.60;;
20069;SDS011;10195;50.868;4.382;2023-03-23T06:05:44;7.80;;;2.23;;
20069;SDS011;10195;50.868;4.382;2023-03-23T06:08:10;8.60;;;2.30;;
20069;SDS011;10195;50.868;4.382;2023-03-23T06:10:36;8.63;;;2.60;;
20069;SDS011;10195;50.868;4.382;2023-03-23T06:13:03;7.53;;;2.00;;
20069;SDS011;10195;50.868;4.382;2023-03-23T06:15:30;7.80;;;2.40;;
20069;SDS011;10195;50.868;4.382;2023-03-23T06:18:00;8.33;;;2.20;;
20069;SDS011;10195;50.868;4.382;2023-03-23T06:20:27;11.53;;;2.50;;
20069;SDS011;10195;50.868;4.382;2023-03-23T06:22:54;8.00;;;1.97;;
20069;SDS011;10195;50.868;4.382;2023-03-23T06:25:20;10.57;;;2.50;;
20069;SDS011;10195;50.868;4.382;2023-03-23T06:27:47;9.30;;;2.10;;
20069;SDS011;10195;50.868;4.382;2023-03-23T06:30:13;10.27;;;1.90;;
20069;SDS011;10195;50.868;4.382;2023-03-23T06:32:42;7.67;;;1.87;;
20069;SDS011;10195;50.868;4.382;2023-03-23T06:35:11;7.80;;;2.20;;
20069;SDS011;10195;50.868;4.382;2023-03-23T06:37:37;9.47;;;2.50;;
20069;SDS011;10195;50.868;4.382;2023-03-23T06:40:03;8.17;;;1.73;;
20069;SDS011;10195;50.868;4.382;2023-03-23T06:42:33;6.87;;;1.90;;
20069;SDS011;10195;50.868;4.382;2023-03-23T06:44:59;6.90;;;2.13;;
20069;SDS011;10195;50.868;4.382;2023-03-23T06:47:29;5.23;;;2.00;;
20069;SDS011;10195;50.868;4.382;2023-03-23T06:49:55;11.07;;;2.43;;
20069;SDS011;10195;50.868;4.382;2023-03-23T06:52:21;10.30;;;2.33;;
20069;SDS011;10195;50.868;4.382;2023-03-23T06:54:48;12.00;;;2.70;;
20069;SDS011;10195;50.868;4.382;2023-03-23T06:57:14;10.77;;;2.30;;
20069;SDS011;10195;50.868;4.382;2023-03-23T06:59:41;9.77;;;2.00;;
20069;SDS011;10195;50.868;4.382;2023-03-23T07:02:08;12.20;;;2.00;;
20069;SDS011;10195;50.868;4.382;2023-03-23T07:04:36;4.53;;;1.40;;
20069;SDS011;10195;50.868;4.382;2023-03-23T07:07:06;1.00;;;0.80;;
20069;SDS011;10195;50.868;4.382;2023-03-23T07:09:33;3.70;;;1.37;;
20069;SDS011;10195;50.868;4.382;2023-03-23T07:11:59;2.03;;;1.03;;
20069;SDS011;10195;50.868;4.382;2023-03-23T07:14:25;7.57;;;1.27;;
20069;SDS011;10195;50.868;4.382;2023-03-23T07:16:51;5.60;;;1.10;;
20069;SDS011;10195;50.868;4.382;2023-03-23T07:19:18;4.27;;;1.30;;
20069;SDS011;10195;50.868;4.382;2023-03-23T07:21:44;2.13;;;1.00;;
20069;SDS011;10195;50.868;4.382;2023-03-23T07:24:10;7.60;;;1.20;;
20069;SDS011;10195;50.868;4.382;2023-03-23T07:26:40;4.63;;;1.27;;
20069;SDS011;10195;50.868;4.382;2023-03-23T07:29:06;5.37;;;1.20;;
20069;SDS011;10195;50.868;4.382;2023-03-23T07:31:33;5.03;;;1.40;;
20069;SDS011;10195;50.868;4.382;2023-03-23T07:33:59;3.00;;;1.30;;
20069;SDS011;10195;50.868;4.382;2023-03-23T07:36:26;3.93;;;1.53;;
20069;SDS011;10195;50.868;4.382;2023-03-23T07:38:52;3.87;;;1.20;;
20069;SDS011;10195;50.868;4.382;2023-03-23T07:41:18;6.20;;;1.83;;
20069;SDS011;10195;50.868;4.382;2023-03-23T07:43:44;4.73;;;1.47;;
20069;SDS011;10195;50.868;4.382;2023-03-23T07:46:10;6.37;;;1.43;;
20069;SDS011;10195;50.868;4.382;2023-03-23T07:48:36;7.77;;;1.70;;
20069;SDS011;10195;50.868;4.382;2023-03-23T07:51:02;6.03;;;1.77;;
20069;SDS011;10195;50.868;4.382;2023-03-23T07:53:28;6.83;;;1.80;;
20069;SDS011;10195;50.868;4.382;2023-03-23T07:55:54;7.53;;;1.97;;
20069;SDS011;10195;50.868;4.382;2023-03-23T07:58:20;4.43;;;2.33;;
20069;SDS011;10195;50.868;4.382;2023-03-23T08:00:46;6.33;;;2.00;;
20069;SDS011;10195;50.868;4.382;2023-03-23T08:03:13;7.83;;;2.00;;
20069;SDS011;10195;50.868;4.382;2023-03-23T08:05:40;5.03;;;1.83;;
20069;SDS011;10195;50.868;4.382;2023-03-23T08:08:07;3.93;;;1.60;;
20069;SDS011;10195;50.868;4.382;2023-03-23T08:10:33;7.07;;;2.33;;
20069;SDS011;10195;50.868;4.382;2023-03-23T08:12:59;7.03;;;1.97;;
20069;SDS011;10195;50.868;4.382;2023-03-23T08:15:25;5.07;;;1.90;;
20069;SDS011;10195;50.868;4.382;2023-03-23T08:17:52;8.13;;;2.07;;
20069;SDS011;10195;50.868;4.382;2023-03-23T08:20:18;9.00;;;1.70;;
20069;SDS011;10195;50.868;4.382;2023-03-23T08:22:51;6.70;;;1.73;;
20069;SDS011;10195;50.868;4.382;2023-03-23T08:25:20;2.63;;;1.43;;
20069;SDS011;10195;50.868;4.382;2023-03-23T08:27:47;8.60;;;1.50;;
20069;SDS011;10195;50.868;4.382;2023-03-23T08:30:17;2.53;;;1.37;;
20069;SDS011;10195;50.868;4.382;2023-03-23T08:32:44;4.37;;;1.20;;
20069;SDS011;10195;50.868;4.382;2023-03-23T08:35:14;3.70;;;1.43;;
20069;SDS011;10195;50.868;4.382;2023-03-23T08:37:40;2.63;;;1.80;;
20069;SDS011;10195;50.868;4.382;2023-03-23T08:40:07;3.70;;;1.57;;
20069;SDS011;10195;50.868;4.382;2023-03-23T08:42:35;7.50;;;1.70;;
20069;SDS011;10195;50.868;4.382;2023-03-23T08:45:03;3.97;;;1.33;;
20069;SDS011;10195;50.868;4.382;2023-03-23T08:47:32;5.47;;;1.93;;
20069;SDS011;10195;50.868;4.382;2023-03-23T08:49:59;2.83;;;1.50;;
20069;SDS011;10195;50.868;4.382;2023-03-23T08:52:25;8.03;;;1.53;;
20069;SDS011;10195;50.868;4.382;2023-03-23T08:54:50;6.17;;;1.63;;
20069;SDS011;10195;50.868;4.382;2023-03-23T08:57:16;5.80;;;1.73;;
20069;SDS011;10195;50.868;4.382;2023-03-23T08:59:43;4.70;;;1.60;;
20069;SDS011;10195;50.868;4.382;2023-03-23T09:02:09;4.47;;;2.10;;
20069;SDS011;10195;50.868;4.382;2023-03-23T09:04:40;4.70;;;2.20;;
20069;SDS011;10195;50.868;4.382;2023-03-23T09:07:11;7.03;;;1.63;;
20069;SDS011;10195;50.868;4.382;2023-03-23T09:09:39;6.13;;;1.70;;
20069;SDS011;10195;50.868;4.382;2023-03-23T09:12:06;5.43;;;1.77;;
20069;SDS011;10195;50.868;4.382;2023-03-23T09:14:33;6.73;;;1.90;;
20069;SDS011;10195;50.868;4.382;2023-03-23T09:17:00;5.20;;;1.57;;
20069;SDS011;10195;50.868;4.382;2023-03-23T09:19:25;4.33;;;1.53;;
20069;SDS011;10195;50.868;4.382;2023-03-23T09:21:52;8.50;;;1.87;;
20069;SDS011;10195;50.868;4.382;2023-03-23T09:24:17;3.17;;;1.60;;
20069;SDS011;10195;50.868;4.382;2023-03-23T09:26:44;6.63;;;2.07;;
20069;SDS011;10195;50.868;4.382;2023-03-23T09:29:10;5.07;;;2.00;;
20069;SDS011;10195;50.868;4.382;2023-03-23T09:31:37;4.63;;;1.50;;
20069;SDS011;10195;50.868;4.382;2023-03-23T09:34:05;3.07;;;1.63;;
20069;SDS011;10195;50.868;4.382;2023-03-23T09:36:34;4.80;;;1.90;;
20069;SDS011;10195;50.868;4.382;2023-03-23T09:39:01;5.37;;;1.73;;
20069;SDS011;10195;50.868;4.382;2023-03-23T09:44:53;3.90;;;1.80;;
20069;SDS011;10195;50.868;4.382;2023-03-23T09:50:30;7.13;;;1.90;;
20069;SDS011;10195;50.868;4.382;2023-03-23T09:52:58;3.10;;;1.70;;
20069;SDS011;10195;50.868;4.382;2023-03-23T09:55:26;2.50;;;1.43;;
20069;SDS011;10195;50.868;4.382;2023-03-23T10:03:34;4.07;;;1.80;;
20069;SDS011;10195;50.868;4.382;2023-03-23T10:06:07;6.53;;;1.73;;
20069;SDS011;10195;50.868;4.382;2023-03-23T10:08:36;6.57;;;1.90;;
20069;SDS011;10195;50.868;4.382;2023-03-23T10:14:09;6.00;;;2.00;;
20069;SDS011;10195;50.868;4.382;2023-03-23T10:26:04;5.17;;;2.20;;
20069;SDS011;10195;50.868;4.382;2023-03-23T10:28:44;6.87;;;2.00;;
20069;SDS011;10195;50.868;4.382;2023-03-23T10:31:17;4.93;;;1.90;;
20069;SDS011;10195;50.868;4.382;2023-03-23T10:33:48;8.80;;;2.67;;
20069;SDS011;10195;50.868;4.382;2023-03-23T10:41:36;7.10;;;2.30;;
20069;SDS011;10195;50.868;4.382;2023-03-23T10:44:36;6.33;;;2.57;;
20069;SDS011;10195;50.868;4.382;2023-03-23T10:46:59;6.27;;;2.27;;
20069;SDS011;10195;50.868;4.382;2023-03-23T10:49:43;4.97;;;2.10;;
20069;SDS011;10195;50.868;4.382;2023-03-23T10:55:06;5.30;;;2.23;;
20069;SDS011;10195;50.868;4.382;2023-03-23T10:57:35;8.87;;;2.40;;
20069;SDS011;10195;50.868;4.382;2023-03-23T11:02:36;7.93;;;2.63;;
20069;SDS011;10195;50.868;4.382;2023-03-23T11:05:18;12.07;;;2.90;;
20069;SDS011;10195;50.868;4.382;2023-03-23T11:07:52;9.43;;;2.23;;
20069;SDS011;10195;50.868;4.382;2023-03-23T11:10:21;9.67;;;3.00;;
20069;SDS011;10195;50.868;4.382;2023-03-23T11:12:47;8.93;;;2.77;;
20069;SDS011;10195;50.868;4.382;2023-03-23T11:18:21;8.77;;;2.33;;
20069;SDS011;10195;50.868;4.382;2023-03-23T11:20:57;7.40;;;2.47;;
20069;SDS011;10195;50.868;4.382;2023-03-23T11:23:57;9.33;;;2.47;;
20069;SDS011;10195;50.868;4.382;2023-03-23T11:26:26;7.87;;;2.43;;
20069;SDS011;10195;50.868;4.382;2023-03-23T11:28:58;7.13;;;2.80;;
20069;SDS011;10195;50.868;4.382;2023-03-23T11:31:34;10.37;;;2.83;;
20069;SDS011;10195;50.868;4.382;2023-03-23T11:36:43;9.50;;;3.40;;
20069;SDS011;10195;50.868;4.382;2023-03-23T11:41:50;13.87;;;2.57;;
20069;SDS011;10195;50.868;4.382;2023-03-23T11:44:16;8.53;;;2.60;;
20069;SDS011;10195;50.868;4.382;2023-03-23T11:47:04;10.45;;;2.55;;
20069;SDS011;10195;50.868;4.382;2023-03-23T11:49:45;8.97;;;2.27;;
20069;SDS011;10195;50.868;4.382;2023-03-23T11:52:23;6.47;;;2.27;;
20069;SDS011;10195;50.868;4.382;2023-03-23T11:55:08;8.40;;;2.67;;
20069;SDS011;10195;50.868;4.382;2023-03-23T11:57:39;9.20;;;2.73;;
20069;SDS011;10195;50.868;4.382;2023-03-23T12:00:15;8.87;;;2.90;;
20069;SDS011;10195;50.868;4.382;2023-03-23T12:02:52;11.23;;;2.63;;
20069;SDS011;10195;50.868;4.382;2023-03-23T12:05:43;5.77;;;1.90;;
20069;SDS011;10195;50.868;4.382;2023-03-23T12:08:36;6.50;;;2.10;;
20069;SDS011;10195;50.868;4.382;2023-03-23T12:11:22;10.25;;;2.55;;
20069;SDS011;10195;50.868;4.382;2023-03-23T12:14:15;10.03;;;2.40;;
20069;SDS011;10195;50.868;4.382;2023-03-23T12:19:47;9.03;;;2.40;;
20069;SDS011;10195;50.868;4.382;2023-03-23T12:22:28;12.60;;;2.77;;
20069;SDS011;10195;50.868;4.382;2023-03-23T12:27:57;7.35;;;2.22;;
20069;SDS011;10195;50.868;4.382;2023-03-23T12:33:13;6.67;;;2.20;;
20069;SDS011;10195;50.868;4.382;2023-03-23T12:44:05;9.40;;;2.50;;
20069;SDS011;10195;50.868;4.382;2023-03-23T12:49:26;13.27;;;2.50;;
20069;SDS011;10195;50.868;4.382;2023-03-23T12:54:38;8.75;;;3.17;;
20069;SDS011;10195;50.868;4.382;2023-03-23T12:59:50;12.80;;;2.80;;
20069;SDS011;10195;50.868;4.382;2023-03-23T13:05:25;7.87;;;2.50;;
20069;SDS011;10195;50.868;4.382;2023-03-23T13:10:45;8.07;;;2.43;;
20069;SDS011;10195;50.868;4.382;2023-03-23T13:13:23;11.80;;;2.90;;
20069;SDS011;10195;50.868;4.382;2023-03-23T13:21:53;6.65;;;2.25;;
20069;SDS011;10195;50.868;4.382;2023-03-23T13:24:33;15.63;;;2.47;;
20069;SDS011;10195;50.868;4.382;2023-03-23T13:27:04;8.18;;;2.53;;
20069;SDS011;10195;50.868;4.382;2023-03-23T13:29:31;8.20;;;2.13;;
20069;SDS011;10195;50.868;4.382;2023-03-23T13:32:11;9.43;;;2.92;;
20069;SDS011;10195;50.868;4.382;2023-03-23T13:34:44;18.60;;;3.03;;
20069;SDS011;10195;50.868;4.382;2023-03-23T13:42:51;10.73;;;2.53;;
20069;SDS011;10195;50.868;4.382;2023-03-23T13:50:53;11.60;;;2.40;;
20069;SDS011;10195;50.868;4.382;2023-03-23T13:53:25;4.27;;;1.53;;
20069;SDS011;10195;50.868;4.382;2023-03-23T13:56:07;9.10;;;2.67;;
20069;SDS011;10195;50.868;4.382;2023-03-23T13:59:04;10.27;;;3.27;;
20069;SDS011;10195;50.868;4.382;2023-03-23T14:01:56;10.53;;;2.37;;
20069;SDS011;10195;50.868;4.382;2023-03-23T14:04:50;8.57;;;3.00;;
20069;SDS011;10195;50.868;4.382;2023-03-23T14:07:16;10.13;;;2.60;;
20069;SDS011;10195;50.868;4.382;2023-03-23T14:09:44;8.23;;;2.70;;
20069;SDS011;10195;50.868;4.382;2023-03-23T14:12:27;9.37;;;2.70;;
20069;SDS011;10195;50.868;4.382;2023-03-23T14:14:57;12.63;;;2.97;;
20069;SDS011;10195;50.868;4.382;2023-03-23T14:17:30;10.45;;;2.85;;
20069;SDS011;10195;50.868;4.382;2023-03-23T14:19:59;14.03;;;3.90;;
20069;SDS011;10195;50.868;4.382;2023-03-23T14:22:35;11.53;;;3.53;;
20069;SDS011;10195;50.868;4.382;2023-03-23T14:25:17;13.20;;;3.27;;
20069;SDS011;10195;50.868;4.382;2023-03-23T14:27:45;15.40;;;2.93;;
20069;SDS011;10195;50.868;4.382;2023-03-23T14:30:16;11.37;;;3.30;;
20069;SDS011;10195;50.868;4.382;2023-03-23T14:32:46;11.57;;;2.93;;
20069;SDS011;10195;50.868;4.382;2023-03-23T14:35:23;13.53;;;3.40;;
20069;SDS011;10195;50.868;4.382;2023-03-23T14:37:56;16.90;;;3.43;;
20069;SDS011;10195;50.868;4.382;2023-03-23T14:40:22;11.20;;;3.33;;
20069;SDS011;10195;50.868;4.382;2023-03-23T14:42:51;13.13;;;3.30;;
20069;SDS011;10195;50.868;4.382;2023-03-23T14:45:19;15.70;;;3.30;;
20069;SDS011;10195;50.868;4.382;2023-03-23T14:47:48;6.53;;;2.30;;
20069;SDS011;10195;50.868;4.382;2023-03-23T14:50:24;9.00;;;2.17;;
20069;SDS011;10195;50.868;4.382;2023-03-23T14:53:22;12.60;;;2.63;;
20069;SDS011;10195;50.868;4.382;2023-03-23T14:55:59;11.07;;;2.53;;
20069;SDS011;10195;50.868;4.382;2023-03-23T14:58:29;9.30;;;3.10;;
20069;SDS011;10195;50.868;4.382;2023-03-23T15:00:59;9.93;;;2.17;;
20069;SDS011;10195;50.868;4.382;2023-03-23T15:03:40;14.67;;;2.83;;
20069;SDS011;10195;50.868;4.382;2023-03-23T15:06:15;13.00;;;2.57;;
20069;SDS011;10195;50.868;4.382;2023-03-23T15:08:43;13.80;;;3.30;;
20069;SDS011;10195;50.868;4.382;2023-03-23T15:13:50;8.43;;;2.60;;
20069;SDS011;10195;50.868;4.382;2023-03-23T15:16:26;8.57;;;2.77;;
20069;SDS011;10195;50.868;4.382;2023-03-23T15:21:28;7.00;;;2.70;;
20069;SDS011;10195;50.868;4.382;2023-03-23T15:23:56;8.33;;;3.00;;
20069;SDS011;10195;50.868;4.382;2023-03-23T15:26:24;12.13;;;3.93;;
20069;SDS011;10195;50.868;4.382;2023-03-23T15:28:50;14.07;;;4.53;;
20069;SDS011;10195;50.868;4.382;2023-03-23T15:31:26;16.70;;;5.05;;
20069;SDS011;10195;50.868;4.382;2023-03-23T15:33:55;14.82;;;4.30;;
20069;SDS011;10195;50.868;4.382;2023-03-23T15:36:27;14.77;;;4.03;;
20069;SDS011;10195;50.868;4.382;2023-03-23T15:38:58;15.15;;;4.15;;
20069;SDS011;10195;50.868;4.382;2023-03-23T15:41:29;11.77;;;3.70;;
20069;SDS011;10195;50.868;4.382;2023-03-23T15:43:58;14.73;;;4.00;;
20069;SDS011;10195;50.868;4.382;2023-03-23T15:46:35;10.15;;;2.67;;
20069;SDS011;10195;50.868;4.382;2023-03-23T15:49:12;16.20;;;3.45;;
20069;SDS011;10195;50.868;4.382;2023-03-23T15:51:39;10.63;;;3.50;;
20069;SDS011;10195;50.868;4.382;2023-03-23T15:54:05;17.70;;;3.90;;
20069;SDS011;10195;50.868;4.382;2023-03-23T15:56:38;15.13;;;3.20;;
20069;SDS011;10195;50.868;4.382;2023-03-23T15:59:04;9.33;;;3.33;;
20069;SDS011;10195;50.868;4.382;2023-03-23T16:01:30;17.07;;;3.50;;
20069;SDS011;10195;50.868;4.382;2023-03-23T16:03:57;15.53;;;3.23;;
20069;SDS011;10195;50.868;4.382;2023-03-23T16:06:31;13.33;;;2.90;;
20069;SDS011;10195;50.868;4.382;2023-03-23T16:08:58;8.37;;;2.47;;
20069;SDS011;10195;50.868;4.382;2023-03-23T16:11:28;9.30;;;2.47;;
20069;SDS011;10195;50.868;4.382;2023-03-23T16:13:56;12.90;;;3.17;;
20069;SDS011;10195;50.868;4.382;2023-03-23T16:16:23;10.30;;;2.50;;
20069;SDS011;10195;50.868;4.382;2023-03-23T16:19:01;9.23;;;2.40;;
20069;SDS011;10195;50.868;4.382;2023-03-23T16:21:27;9.83;;;2.47;;
20069;SDS011;10195;50.868;4.382;2023-03-23T16:23:53;8.97;;;2.43;;
20069;SDS011;10195;50.868;4.382;2023-03-23T16:26:19;8.17;;;2.33;;
20069;SDS011;10195;50.868;4.382;2023-03-23T16:28:45;11.23;;;3.07;;
20069;SDS011;10195;50.868;4.382;2023-03-23T16:31:11;8.40;;;2.83;;
20069;SDS011;10195;50.868;4.382;2023-03-23T16:33:36;11.37;;;3.13;;
20069;SDS011;10195;50.868;4.382;2023-03-23T16:36:02;8.80;;;2.63;;
20069;SDS011;10195;50.868;4.382;2023-03-23T16:38:28;9.63;;;2.90;;
20069;SDS011;10195;50.868;4.382;2023-03-23T16:40:54;11.97;;;3.83;;
20069;SDS011;10195;50.868;4.382;2023-03-23T16:43:20;13.00;;;3.63;;
20069;SDS011;10195;50.868;4.382;2023-03-23T16:45:46;11.93;;;3.63;;
20069;SDS011;10195;50.868;4.382;2023-03-23T16:48:12;9.00;;;3.77;;
20069;SDS011;10195;50.868;4.382;2023-03-23T16:50:40;11.57;;;3.43;;
20069;SDS011;10195;50.868;4.382;2023-03-23T16:53:06;9.00;;;3.40;;
20069;SDS011;10195;50.868;4.382;2023-03-23T16:55:33;18.57;;;4.03;;
20069;SDS011;10195;50.868;4.382;2023-03-23T16:58:00;12.97;;;3.63;;
20069;SDS011;10195;50.868;4.382;2023-03-23T17:00:26;12.23;;;2.97;;